Time;durP1;ratioP1;P1;durP2;ratioP2;P2;SDS_P1;SDS_P2;PMS_P1;PMS_P2;Temp;Humidity;BMP_temperature;BMP_pressure;BME280_temperature;BME280_humidity;BME280_pressure;Samples;Min_cycle;Max_cycle;Signal;HPM_P1;HPM_P2
2022/12/07 00:01:30;;;;;;;;;;;;;;;;;;5045441;28;19925;-80
2022/12/07 00:04:03;;;;;;;;;;;;;;;;;;5040474;28;19925;-80
2022/12/07 00:06:31;;;;;;;;;;;;;;;;;;5045875;28;19936;-81
2022/12/07 00:08:58;;;;;;;;;;;;;;;;;;5039559;28;19925;-79
2022/12/07 00:11:26;;;;;;;;;;;;;;;;;;5044824;28;19932;-79
2022/12/07 00:13:53;;;;;;;;;;;;;;;;;;5039613;28;19925;-79
2022/12/07 00:16:21;;;;;;;;;;;;;;;;;;5047668;28;19952;-78
2022/12/07 00:18:48;;;;;;;;;;;;;;;;;;5048810;28;19932;-79
2022/12/07 00:21:16;;;;;;;;;;;;;;;;;;5039233;28;19925;-80
2022/12/07 00:23:43;;;;;;;;;;;;;;;;;;5044364;28;19929;-79
2022/12/07 00:26:11;;;;;;;;;;;;;;;;;;5038668;28;19928;-79
2022/12/07 00:28:38;;;;;;;;;;;;;;;;;;5042178;28;20004;-78
2022/12/07 00:31:11;;;;;;;;;;;;;;;;;;5041313;28;19929;-80
2022/12/07 00:33:43;;;;;;;;;;;;;;;;;;5048195;28;19925;-78
2022/12/07 00:36:16;;;;;;;;;;;;;;;;;;5043235;28;19925;-79
2022/12/07 00:38:43;;;;;;;;;;;;;;;;;;5049013;28;19932;-79
2022/12/07 00:41:11;;;;;;;;;;;;;;;;;;5044262;28;19936;-79
2022/12/07 00:43:38;;;;;;;;;;;;;;;;;;5043878;28;19931;-78
2022/12/07 00:46:11;;;;;;;;;;;;;;;;;;5053639;28;19929;-80
2022/12/07 00:48:44;;;;;;;;;;;;;;;;;;5038729;28;19936;-80
2022/12/07 00:51:16;;;;;;;;;;;;;;;;;;5042049;28;19932;-79
2022/12/07 00:53:44;;;;;;;;;;;;;;;;;;5042099;28;19924;-79
2022/12/07 00:56:16;;;;;;;;;;;;;;;;;;5046780;28;19925;-79
2022/12/07 00:58:49;;;;;;;;;;;;;;;;;;5035272;28;19929;-80
2022/12/07 01:01:16;;;;;;;;;;;;;;;;;;5039503;28;19925;-79
2022/12/07 01:03:44;;;;;;;;;;;;;;;;;;5046096;28;19925;-79
2022/12/07 01:06:11;;;;;;;;;;;;;;;;;;5040417;28;19936;-80
2022/12/07 01:08:39;;;;;;;;;;;;;;;;;;5037748;28;19925;-81
2022/12/07 01:11:06;;;;;;;;;;;;;;;;;;5043301;28;19926;-80
2022/12/07 01:13:34;;;;;;;;;;;;;;;;;;5042082;28;19925;-79
2022/12/07 01:16:01;;;;;;;;;;;;;;;;;;5041544;28;20431;-80
2022/12/07 01:18:29;;;;;;;;;;;;;;;;;;5038856;28;20325;-78
2022/12/07 01:21:01;;;;;;;;;;;;;;;;;;5039585;28;19928;-79
2022/12/07 01:23:29;;;;;;;;;;;;;;;;;;5040388;28;20507;-77
2022/12/07 01:25:56;;;;;;;;;;;;;;;;;;5041567;28;19925;-79
2022/12/07 01:28:24;;;;;;;;;;;;;;;;;;5043060;28;19929;-78
2022/12/07 01:30:51;;;;;;;;;;;;;;;;;;5046054;28;20054;-79
2022/12/07 01:33:24;;;;;;;;;;;;;;;;;;5039156;28;19929;-79
2022/12/07 01:35:56;;;;;;;;;;;;;;;;;;5038434;28;19940;-79
2022/12/07 01:38:29;;;;;;;;;;;;;;;;;;5037274;28;19924;-79
2022/12/07 01:41:01;;;;;;;;;;;;;;;;;;5041743;28;20422;-78
2022/12/07 01:43:34;;;;;;;;;;;;;;;;;;5039280;28;20591;-78
2022/12/07 01:46:06;;;;;;;;;;;;;;;;;;5038495;28;20388;-78
2022/12/07 01:48:34;;;;;;;;;;;;;;;;;;5046281;28;19929;-77
2022/12/07 01:51:06;;;;;;;;;;;;;;;;;;5038074;28;20577;-80
2022/12/07 01:53:34;;;;;;;;;;;;;;;;;;5051136;28;19929;-78
2022/12/07 01:56:06;;;;;;;;;;;;;;;;;;5037006;28;19925;-78
2022/12/07 01:58:39;;;;;;;;;;;;;;;;;;5053405;28;20420;-79
2022/12/07 02:01:12;;;;;;;;;;;;;;;;;;5042036;28;19933;-79
2022/12/07 02:03:44;;;;;;;;;;;;;;;;;;5040229;28;20278;-82
2022/12/07 02:06:12;;;;;;;;;;;;;;;;;;5040549;28;19940;-80
2022/12/07 02:08:44;;;;;;;;;;;;;;;;;;5038240;28;19932;-79
2022/12/07 02:11:12;;;;;;;;;;;;;;;;;;5045085;28;19936;-78
2022/12/07 02:13:39;;;;;;;;;;;;;;;;;;5052555;28;19948;-79
2022/12/07 02:16:12;;;;;;;;;;;;;;;;;;5039075;28;19929;-78
2022/12/07 02:18:45;;;;;;;;;;;;;;;;;;5057795;28;19948;-79
2022/12/07 02:21:12;;;;;;;;;;;;;;;;;;5044927;28;19936;-78
2022/12/07 02:23:39;;;;;;;;;;;;;;;;;;5044992;28;20309;-79
2022/12/07 02:26:07;;;;;;;;;;;;;;;;;;5042743;28;20304;-79
2022/12/07 02:28:40;;;;;;;;;;;;;;;;;;5043377;28;19924;-79
2022/12/07 02:31:07;;;;;;;;;;;;;;;;;;5043841;28;19933;-79
2022/12/07 02:33:35;;;;;;;;;;;;;;;;;;5045208;28;19925;-78
2022/12/07 02:36:02;;;;;;;;;;;;;;;;;;5043354;28;19940;-79
2022/12/07 02:38:30;;;;;;;;;;;;;;;;;;5042610;28;20791;-79
2022/12/07 02:41:02;;;;;;;;;;;;;;;;;;5044399;28;19929;-77
2022/12/07 02:43:35;;;;;;;;;;;;;;;;;;5044981;28;19929;-78
2022/12/07 02:46:02;;;;;;;;;;;;;;;;;;5043582;28;19929;-80
2022/12/07 02:48:30;;;;;;;;;;;;;;;;;;5040381;28;19925;-79
2022/12/07 02:50:57;;;;;;;;;;;;;;;;;;5043200;28;19925;-79
2022/12/07 02:53:30;;;;;;;;;;;;;;;;;;5060221;28;19932;-78
2022/12/07 02:55:58;;;;;;;;;;;;;;;;;;5042591;28;19925;-79
2022/12/07 02:58:25;;;;;;;;;;;;;;;;;;5047898;28;19931;-79
2022/12/07 03:00:53;;;;;;;;;;;;;;;;;;5042901;28;19929;-81
2022/12/07 03:03:25;;;;;;;;;;;;;;;;;;5045806;28;19925;-80
2022/12/07 03:05:53;;;;;;;;;;;;;;;;;;5042763;28;19951;-81
2022/12/07 03:08:20;;;;;;;;;;;;;;;;;;5038691;28;19925;-79
2022/12/07 03:10:53;;;;;;;;;;;;;;;;;;5057428;28;19929;-80
2022/12/07 03:13:21;;;;;;;;;;;;;;;;;;5048234;28;19924;-79
2022/12/07 03:15:53;;;;;;;;;;;;;;;;;;5040588;28;19929;-79
2022/12/07 03:18:21;;;;;;;;;;;;;;;;;;5043095;28;20305;-79
2022/12/07 03:20:48;;;;;;;;;;;;;;;;;;5042383;28;19925;-78
2022/12/07 03:23:21;;;;;;;;;;;;;;;;;;5060733;28;19925;-80
2022/12/07 03:25:53;;;;;;;;;;;;;;;;;;5048232;28;19925;-80
2022/12/07 03:28:22;;;;;;;;;;;;;;;;;;5039337;28;19926;-80
2022/12/07 03:30:54;;;;;;;;;;;;;;;;;;5048353;28;19929;-79
2022/12/07 03:33:27;;;;;;;;;;;;;;;;;;5043881;28;19936;-80
2022/12/07 03:35:59;;;;;;;;;;;;;;;;;;5044579;28;19940;-81
2022/12/07 03:38:27;;;;;;;;;;;;;;;;;;5041920;28;19933;-80
2022/12/07 03:40:59;;;;;;;;;;;;;;;;;;5040908;28;19929;-80
2022/12/07 03:43:27;;;;;;;;;;;;;;;;;;5039635;28;20285;-79
2022/12/07 03:45:59;;;;;;;;;;;;;;;;;;5044040;28;19936;-81
2022/12/07 03:48:32;;;;;;;;;;;;;;;;;;5043592;28;19925;-79
2022/12/07 03:51:04;;;;;;;;;;;;;;;;;;5039835;28;20381;-79
2022/12/07 03:53:32;;;;;;;;;;;;;;;;;;5043374;28;19925;-79
2022/12/07 03:56:05;;;;;;;;;;;;;;;;;;5038420;28;19936;-78
2022/12/07 03:58:32;;;;;;;;;;;;;;;;;;5065092;28;19925;-79
2022/12/07 04:01:05;;;;;;;;;;;;;;;;;;5045854;28;19933;-79
2022/12/07 04:03:37;;;;;;;;;;;;;;;;;;5045883;28;19925;-79
2022/12/07 04:06:05;;;;;;;;;;;;;;;;;;5060723;28;19929;-80
2022/12/07 04:08:37;;;;;;;;;;;;;;;;;;5064645;28;19947;-79
2022/12/07 04:11:05;;;;;;;;;;;;;;;;;;5041174;28;19925;-80
2022/12/07 04:14:17;;;;;;;;;;;;;;;;;;5038705;28;19932;-78
2022/12/07 04:16:25;;;;;;;;;;;;;;;;;;5041668;28;19936;-79
2022/12/07 04:18:53;;;;;;;;;;;;;;;;;;5050469;28;19925;-78
2022/12/07 04:21:25;;;;;;;;;;;;;;;;;;5039030;28;19932;-79
2022/12/07 04:23:53;;;;;;;;;;;;;;;;;;5050468;28;19925;-77
2022/12/07 04:26:25;;;;;;;;;;;;;;;;;;5041191;28;19932;-79
2022/12/07 04:28:58;;;;;;;;;;;;;;;;;;5044316;28;19928;-78
2022/12/07 04:31:25;;;;;;;;;;;;;;;;;;5042902;28;19929;-78
2022/12/07 04:33:58;;;;;;;;;;;;;;;;;;5045102;28;20443;-78
2022/12/07 04:36:25;;;;;;;;;;;;;;;;;;5042159;28;19932;-78
2022/12/07 04:38:53;;;;;;;;;;;;;;;;;;5040579;28;20301;-79
2022/12/07 04:41:26;;;;;;;;;;;;;;;;;;5046539;28;19926;-79
2022/12/07 04:43:54;;;;;;;;;;;;;;;;;;5040963;28;19929;-78
2022/12/07 04:46:26;;;;;;;;;;;;;;;;;;5039911;28;20431;-78
2022/12/07 04:48:54;;;;;;;;;;;;;;;;;;5037673;28;19929;-79
2022/12/07 04:51:26;;;;;;;;;;;;;;;;;;5042047;28;19932;-79
2022/12/07 04:53:59;;;;;;;;;;;;;;;;;;5047679;28;19932;-78
2022/12/07 04:56:26;;;;;;;;;;;;;;;;;;5043685;28;20381;-79
2022/12/07 04:58:54;;;;;;;;;;;;;;;;;;5035271;28;20306;-79
2022/12/07 05:01:26;;;;;;;;;;;;;;;;;;5039199;28;20305;-79
2022/12/07 05:03:54;;;;;;;;;;;;;;;;;;5038007;28;19936;-80
2022/12/07 05:06:26;;;;;;;;;;;;;;;;;;5046550;28;19932;-78
2022/12/07 05:08:54;;;;;;;;;;;;;;;;;;5039537;28;20409;-79
2022/12/07 05:11:40;;;;;;;;;;;;;;;;;;5045537;28;19925;-78
2022/12/07 05:14:07;;;;;;;;;;;;;;;;;;5037185;28;19932;-79
2022/12/07 05:16:35;;;;;;;;;;;;;;;;;;5060072;28;19932;-79
2022/12/07 05:19:07;;;;;;;;;;;;;;;;;;5042704;28;19948;-78
2022/12/07 05:21:35;;;;;;;;;;;;;;;;;;5040294;28;19935;-78
2022/12/07 05:24:07;;;;;;;;;;;;;;;;;;5043043;28;19932;-79
2022/12/07 05:26:35;;;;;;;;;;;;;;;;;;5041499;28;19929;-78
2022/12/07 05:29:02;;;;;;;;;;;;;;;;;;5043794;28;19925;-79
2022/12/07 05:31:30;;;;;;;;;;;;;;;;;;5040871;28;19925;-80
2022/12/07 05:34:02;;;;;;;;;;;;;;;;;;5037261;28;20269;-79
2022/12/07 05:36:31;;;;;;;;;;;;;;;;;;5043453;28;19932;-79
2022/12/07 05:39:04;;;;;;;;;;;;;;;;;;5047236;28;20377;-80
2022/12/07 05:44:22;;;;;;;;;;;;;;;;;;5039418;28;19933;-79
2022/12/07 05:46:49;;;;;;;;;;;;;;;;;;5045988;28;19932;-81
2022/12/07 05:49:22;;;;;;;;;;;;;;;;;;5047666;28;19925;-78
2022/12/07 05:51:49;;;;;;;;;;;;;;;;;;5045975;28;19929;-79
2022/12/07 05:54:17;;;;;;;;;;;;;;;;;;5050538;28;19925;-79
2022/12/07 05:56:44;;;;;;;;;;;;;;;;;;5045802;28;19929;-79
2022/12/07 05:59:23;;;;;;;;;;;;;;;;;;5047024;28;19932;-79
2022/12/07 06:01:51;;;;;;;;;;;;;;;;;;5045235;28;22259;-79
2022/12/07 06:04:18;;;;;;;;;;;;;;;;;;5064344;28;20427;-79
2022/12/07 06:06:46;;;;;;;;;;;;;;;;;;5040067;28;19929;-79
2022/12/07 06:09:14;;;;;;;;;;;;;;;;;;5042403;28;19925;-80
2022/12/07 06:14:27;;;;;;;;;;;;;;;;;;5057073;28;20488;-79
2022/12/07 06:16:54;;;;;;;;;;;;;;;;;;5056971;28;19928;-80
2022/12/07 06:19:27;;;;;;;;;;;;;;;;;;5052217;28;19929;-79
2022/12/07 06:21:59;;;;;;;;;;;;;;;;;;5045817;28;19925;-79
2022/12/07 06:24:32;;;;;;;;;;;;;;;;;;5041126;28;19943;-79
2022/12/07 06:27:04;;;;;;;;;;;;;;;;;;5068767;28;19936;-78
2022/12/07 06:29:32;;;;;;;;;;;;;;;;;;5045831;28;19932;-79
2022/12/07 06:31:59;;;;;;;;;;;;;;;;;;5040352;28;19932;-78
2022/12/07 06:34:32;;;;;;;;;;;;;;;;;;5046667;28;19928;-78
2022/12/07 06:37:04;;;;;;;;;;;;;;;;;;5035431;28;19929;-79
2022/12/07 06:39:32;;;;;;;;;;;;;;;;;;5046957;28;20370;-80
2022/12/07 06:42:04;;;;;;;;;;;;;;;;;;5045992;28;19928;-80
2022/12/07 06:44:37;;;;;;;;;;;;;;;;;;5043487;28;19925;-79
2022/12/07 06:47:05;;;;;;;;;;;;;;;;;;5050772;28;20357;-79
2022/12/07 06:49:38;;;;;;;;;;;;;;;;;;5047374;28;19925;-79
2022/12/07 06:52:05;;;;;;;;;;;;;;;;;;5043262;28;19932;-82
2022/12/07 06:54:33;;;;;;;;;;;;;;;;;;5039266;28;20258;-80
2022/12/07 06:57:05;;;;;;;;;;;;;;;;;;5047394;28;19929;-79
2022/12/07 06:59:33;;;;;;;;;;;;;;;;;;5042734;28;19925;-80
2022/12/07 07:02:05;;;;;;;;;;;;;;;;;;5061805;28;19937;-79
2022/12/07 07:04:38;;;;;;;;;;;;;;;;;;5044408;28;19925;-78
2022/12/07 07:07:05;;;;;;;;;;;;;;;;;;5046972;28;19929;-80
2022/12/07 07:09:38;;;;;;;;;;;;;;;;;;5040715;28;20408;-80
2022/12/07 07:12:05;;;;;;;;;;;;;;;;;;5042604;28;19929;-80
2022/12/07 07:14:33;;;;;;;;;;;;;;;;;;5046794;28;19925;-80
2022/12/07 07:17:06;;;;;;;;;;;;;;;;;;5042906;28;20393;-80
2022/12/07 07:19:33;;;;;;;;;;;;;;;;;;5035883;28;20391;-80
2022/12/07 07:22:01;;;;;;;;;;;;;;;;;;5038511;28;19925;-79
2022/12/07 07:24:33;;;;;;;;;;;;;;;;;;5042286;28;19925;-79
2022/12/07 07:27:01;;;;;;;;;;;;;;;;;;5034057;28;19925;-79
2022/12/07 07:29:28;;;;;;;;;;;;;;;;;;5043872;28;19940;-79
2022/12/07 07:32:27;;;;;;;;;;;;;;;;;;5108478;27;19980;-79
2022/12/07 07:34:55;;;;;;;;;;;;;;;;;;5102553;28;20281;-78
2022/12/07 07:37:28;;;;;;;;;;;;;;;;;;5112253;27;19925;-79
2022/12/07 07:39:55;;;;;;;;;;;;;;;;;;5124296;27;19924;-79
2022/12/07 07:42:28;;;;;;;;;;;;;;;;;;5095558;28;19986;-78
2022/12/07 07:45:00;;;;;;;;;;;;;;;;;;5084378;28;20393;-79
2022/12/07 07:47:33;;;;;;;;;;;;;;;;;;5087520;28;20495;-79
2022/12/07 07:50:00;;;;;;;;;;;;;;;;;;5119602;27;19931;-79
2022/12/07 07:52:28;;;;;;;;;;;;;;;;;;5099121;28;19933;-80
2022/12/07 07:55:00;;;;;;;;;;;;;;;;;;5083364;28;19924;-81
2022/12/07 07:57:33;;;;;;;;;;;;;;;;;;5082439;28;20920;-80
2022/12/07 08:00:00;;;;;;;;;;;;;;;;;;5062659;28;19932;-80
2022/12/07 08:02:38;;;;;;;;;;;;;;;;;;5065243;28;19939;-85
2022/12/07 08:05:06;;;;;;;;;;;;;;;;;;5072387;28;19963;-86
2022/12/07 08:07:34;;;;;;;;;;;;;;;;;;5063352;28;19932;-84
2022/12/07 08:10:01;;;;;;;;;;;;;;;;;;5086289;28;19938;-81
2022/12/07 08:12:29;;;;;;;;;;;;;;;;;;5066450;28;19932;-82
2022/12/07 08:14:56;;;;;;;;;;;;;;;;;;5072194;28;19928;-82
2022/12/07 08:17:29;;;;;;;;;;;;;;;;;;5077581;28;20527;-84
2022/12/07 08:19:57;;;;;;;;;;;;;;;;;;5066506;28;19932;-82
2022/12/07 08:22:24;;;;;;;;;;;;;;;;;;5069200;28;19932;-80
2022/12/07 08:24:52;;;;;;;;;;;;;;;;;;5074557;28;19936;-82
2022/12/07 08:27:20;;;;;;;;;;;;;;;;;;5065376;28;19976;-81
2022/12/07 08:29:47;;;;;;;;;;;;;;;;;;5063645;28;19940;-83
2022/12/07 08:32:15;;;;;;;;;;;;;;;;;;5074064;28;19932;-80
2022/12/07 08:34:48;;;;;;;;;;;;;;;;;;5068438;28;19933;-84
2022/12/07 08:37:15;;;;;;;;;;;;;;;;;;5097217;28;20545;-82
2022/12/07 08:39:43;;;;;;;;;;;;;;;;;;5094485;27;19932;-81
2022/12/07 08:42:10;;;;;;;;;;;;;;;;;;5092640;28;19932;-82
2022/12/07 08:44:38;;;;;;;;;;;;;;;;;;5055455;28;19939;-80
2022/12/07 08:47:05;;;;;;;;;;;;;;;;;;5053177;28;19932;-83
2022/12/07 08:49:38;;;;;;;;;;;;;;;;;;5054469;28;19944;-84
2022/12/07 08:52:05;;;;;;;;;;;;;;;;;;5059064;28;20458;-82
2022/12/07 08:54:38;;;;;;;;;;;;;;;;;;5056730;28;19932;-81
2022/12/07 08:57:11;;;;;;;;;;;;;;;;;;5054710;28;19939;-81
2022/12/07 08:59:38;;;;;;;;;;;;;;;;;;5086191;28;19932;-84
2022/12/07 09:02:06;;;;;;;;;;;;;;;;;;5049161;28;20304;-84
2022/12/07 09:04:38;;;;;;;;;;;;;;;;;;5054527;28;19932;-81
2022/12/07 09:07:11;;;;;;;;;;;;;;;;;;5056728;28;19936;-83
2022/12/07 09:09:43;;;;;;;;;;;;;;;;;;5051972;28;19932;-83
2022/12/07 09:12:16;;;;;;;;;;;;;;;;;;5049675;28;19939;-84
2022/12/07 09:14:48;;;;;;;;;;;;;;;;;;5049103;28;19940;-81
2022/12/07 09:17:21;;;;;;;;;;;;;;;;;;5046808;28;19932;-83
2022/12/07 09:19:48;;;;;;;;;;;;;;;;;;5090635;28;19932;-82
2022/12/07 09:22:21;;;;;;;;;;;;;;;;;;5055425;28;19933;-81
2022/12/07 09:24:48;;;;;;;;;;;;;;;;;;5053566;28;19932;-83
2022/12/07 09:27:17;;;;;;;;;;;;;;;;;;5050995;28;20815;-83
2022/12/07 09:29:50;;;;;;;;;;;;;;;;;;5048446;28;19943;-84
2022/12/07 09:32:22;;;;;;;;;;;;;;;;;;5049675;28;19932;-82
2022/12/07 09:34:50;;;;;;;;;;;;;;;;;;5059112;28;19932;-81
2022/12/07 09:37:17;;;;;;;;;;;;;;;;;;5050851;28;19933;-81
2022/12/07 09:39:50;;;;;;;;;;;;;;;;;;5053085;28;19933;-83
2022/12/07 09:42:17;;;;;;;;;;;;;;;;;;5045140;28;19936;-83
2022/12/07 09:44:45;;;;;;;;;;;;;;;;;;5046551;28;20289;-82
2022/12/07 09:47:17;;;;;;;;;;;;;;;;;;5049516;28;19932;-83
2022/12/07 09:49:50;;;;;;;;;;;;;;;;;;5048554;28;19933;-81
2022/12/07 09:52:17;;;;;;;;;;;;;;;;;;5044129;28;19932;-81
2022/12/07 09:54:45;;;;;;;;;;;;;;;;;;5043272;28;19933;-81
2022/12/07 09:57:13;;;;;;;;;;;;;;;;;;5047578;28;20586;-83
2022/12/07 09:59:45;;;;;;;;;;;;;;;;;;5048548;28;19932;-82
2022/12/07 10:02:13;;;;;;;;;;;;;;;;;;5052443;28;20708;-82
2022/12/07 10:04:40;;;;;;;;;;;;;;;;;;5061755;28;19924;-82
2022/12/07 10:07:13;;;;;;;;;;;;;;;;;;5052303;28;19928;-81
2022/12/07 10:09:46;;;;;;;;;;;;;;;;;;5052795;28;19939;-81
2022/12/07 10:12:18;;;;;;;;;;;;;;;;;;5049385;28;21131;-82
2022/12/07 10:14:46;;;;;;;;;;;;;;;;;;5044970;28;19943;-82
2022/12/07 10:17:13;;;;;;;;;;;;;;;;;;5044523;28;19940;-83
2022/12/07 10:19:41;;;;;;;;;;;;;;;;;;5042298;28;19932;-81
2022/12/07 10:22:09;;;;;;;;;;;;;;;;;;5042753;28;19932;-82
2022/12/07 10:24:42;;;;;;;;;;;;;;;;;;5083430;28;20573;-84
2022/12/07 10:27:10;;;;;;;;;;;;;;;;;;5044242;28;19932;-83
2022/12/07 10:29:37;;;;;;;;;;;;;;;;;;5046175;28;20539;-82
2022/12/07 10:32:10;;;;;;;;;;;;;;;;;;5043733;28;20381;-83
2022/12/07 10:34:37;;;;;;;;;;;;;;;;;;5079532;28;19932;-81
2022/12/07 10:37:10;;;;;;;;;;;;;;;;;;5050563;28;19944;-82
2022/12/07 10:39:42;;;;;;;;;;;;;;;;;;5081526;28;20783;-82
2022/12/07 10:42:10;;;;;;;;;;;;;;;;;;5047105;28;19932;-83
2022/12/07 10:44:43;;;;;;;;;;;;;;;;;;5051976;28;19932;-83
2022/12/07 10:47:16;;;;;;;;;;;;;;;;;;5048692;28;19936;-83
2022/12/07 10:49:43;;;;;;;;;;;;;;;;;;5048429;28;19932;-82
2022/12/07 10:52:16;;;;;;;;;;;;;;;;;;5048039;28;19944;-82
2022/12/07 10:54:43;;;;;;;;;;;;;;;;;;5052926;28;21155;-80
2022/12/07 10:57:16;;;;;;;;;;;;;;;;;;5046575;28;20293;-83
2022/12/07 10:59:48;;;;;;;;;;;;;;;;;;5053094;28;19928;-82
2022/12/07 11:02:21;;;;;;;;;;;;;;;;;;5047933;28;19933;-81
2022/12/07 11:04:54;;;;;;;;;;;;;;;;;;5055545;28;19932;-83
2022/12/07 11:07:26;;;;;;;;;;;;;;;;;;5045609;28;20011;-82
2022/12/07 11:09:59;;;;;;;;;;;;;;;;;;5048943;28;19933;-82
2022/12/07 11:12:26;;;;;;;;;;;;;;;;;;5051475;28;19939;-81
2022/12/07 11:14:59;;;;;;;;;;;;;;;;;;5052135;28;20277;-84
2022/12/07 11:17:26;;;;;;;;;;;;;;;;;;5050135;28;19939;-81
2022/12/07 11:19:54;;;;;;;;;;;;;;;;;;5049648;28;20576;-83
2022/12/07 11:22:27;;;;;;;;;;;;;;;;;;5042757;28;20356;-82
2022/12/07 11:24:54;;;;;;;;;;;;;;;;;;5048690;28;19955;-82
2022/12/07 11:27:27;;;;;;;;;;;;;;;;;;5082623;28;19925;-82
2022/12/07 11:29:59;;;;;;;;;;;;;;;;;;5046422;28;19939;-82
2022/12/07 11:32:27;;;;;;;;;;;;;;;;;;5047891;28;20369;-86
2022/12/07 11:35:00;;;;;;;;;;;;;;;;;;5077120;28;21968;-83
2022/12/07 11:37:32;;;;;;;;;;;;;;;;;;5050415;28;20480;-85
2022/12/07 11:39:59;;;;;;;;;;;;;;;;;;5045525;28;20907;-83
2022/12/07 11:42:27;;;;;;;;;;;;;;;;;;5047625;28;19933;-82
2022/12/07 11:45:00;;;;;;;;;;;;;;;;;;5059781;28;19944;-82
2022/12/07 11:47:27;;;;;;;;;;;;;;;;;;5047051;28;19925;-82
2022/12/07 11:49:55;;;;;;;;;;;;;;;;;;5063300;28;19932;-83
2022/12/07 11:52:27;;;;;;;;;;;;;;;;;;5045365;28;20624;-83
2022/12/07 11:55:00;;;;;;;;;;;;;;;;;;5053234;28;19932;-80
2022/12/07 11:57:32;;;;;;;;;;;;;;;;;;5051809;28;19939;-81
2022/12/07 12:00:00;;;;;;;;;;;;;;;;;;5082504;28;19946;-82
2022/12/07 12:02:32;;;;;;;;;;;;;;;;;;5051675;28;19936;-81
2022/12/07 12:05:00;;;;;;;;;;;;;;;;;;5046397;28;19939;-81
2022/12/07 12:07:27;;;;;;;;;;;;;;;;;;5047561;28;19944;-81
2022/12/07 12:09:55;;;;;;;;;;;;;;;;;;5045670;28;20565;-81
2022/12/07 12:12:28;;;;;;;;;;;;;;;;;;5052101;28;19944;-80
2022/12/07 12:14:55;;;;;;;;;;;;;;;;;;5051718;28;20524;-82
2022/12/07 12:17:23;;;;;;;;;;;;;;;;;;5052035;28;19939;-82
2022/12/07 12:19:50;;;;;;;;;;;;;;;;;;5053254;28;19939;-82
2022/12/07 12:22:18;;;;;;;;;;;;;;;;;;5057264;28;19939;-84
2022/12/07 12:24:45;;;;;;;;;;;;;;;;;;5049895;28;19940;-80
2022/12/07 12:27:13;;;;;;;;;;;;;;;;;;5055048;28;19932;-82
2022/12/07 12:29:40;;;;;;;;;;;;;;;;;;5057435;28;19940;-82
2022/12/07 12:32:08;;;;;;;;;;;;;;;;;;5050233;28;19933;-82
2022/12/07 12:34:41;;;;;;;;;;;;;;;;;;5052146;28;19939;-84
2022/12/07 12:37:13;;;;;;;;;;;;;;;;;;5051653;28;19933;-85
2022/12/07 12:39:46;;;;;;;;;;;;;;;;;;5056567;28;19943;-84
2022/12/07 12:42:13;;;;;;;;;;;;;;;;;;5050056;28;19932;-84
2022/12/07 12:44:46;;;;;;;;;;;;;;;;;;5051648;28;19932;-81
2022/12/07 12:47:13;;;;;;;;;;;;;;;;;;5057658;28;20667;-85
2022/12/07 12:49:46;;;;;;;;;;;;;;;;;;5055657;28;19932;-84
2022/12/07 12:52:13;;;;;;;;;;;;;;;;;;5052780;28;19932;-82
2022/12/07 12:54:41;;;;;;;;;;;;;;;;;;5051350;28;19932;-82
2022/12/07 12:57:08;;;;;;;;;;;;;;;;;;5053138;28;19939;-83
2022/12/07 12:59:36;;;;;;;;;;;;;;;;;;5053602;28;19929;-81
2022/12/07 13:02:09;;;;;;;;;;;;;;;;;;5055823;28;19940;-82
2022/12/07 13:04:41;;;;;;;;;;;;;;;;;;5049984;28;19944;-83
2022/12/07 13:07:14;;;;;;;;;;;;;;;;;;5053234;28;19933;-83
2022/12/07 13:09:41;;;;;;;;;;;;;;;;;;5051416;28;19932;-82
2022/12/07 13:12:14;;;;;;;;;;;;;;;;;;5053856;28;19940;-80
2022/12/07 13:14:46;;;;;;;;;;;;;;;;;;5055356;28;19944;-80
2022/12/07 13:17:14;;;;;;;;;;;;;;;;;;5048036;28;19934;-83
2022/12/07 13:19:46;;;;;;;;;;;;;;;;;;5054480;28;19939;-83
2022/12/07 13:22:14;;;;;;;;;;;;;;;;;;5055799;28;19933;-83
2022/12/07 13:24:41;;;;;;;;;;;;;;;;;;5054095;28;19932;-82
2022/12/07 13:27:09;;;;;;;;;;;;;;;;;;5084279;28;19932;-84
2022/12/07 13:29:36;;;;;;;;;;;;;;;;;;5051972;28;19933;-80
2022/12/07 13:32:09;;;;;;;;;;;;;;;;;;5054362;28;19944;-81
2022/12/07 13:34:41;;;;;;;;;;;;;;;;;;5053481;28;19929;-80
2022/12/07 13:37:09;;;;;;;;;;;;;;;;;;5050262;28;20301;-84
2022/12/07 13:39:42;;;;;;;;;;;;;;;;;;5051269;28;19940;-81
2022/12/07 13:42:15;;;;;;;;;;;;;;;;;;5047750;28;19932;-85
2022/12/07 13:44:47;;;;;;;;;;;;;;;;;;5088735;28;19939;-83
2022/12/07 13:47:15;;;;;;;;;;;;;;;;;;5056441;28;19943;-83
2022/12/07 13:49:43;;;;;;;;;;;;;;;;;;5050988;28;21273;-84
2022/12/07 13:52:10;;;;;;;;;;;;;;;;;;5047076;28;20333;-81
2022/12/07 13:54:42;;;;;;;;;;;;;;;;;;5051410;28;19933;-84
2022/12/07 13:57:10;;;;;;;;;;;;;;;;;;5053175;28;19936;-81
2022/12/07 13:59:38;;;;;;;;;;;;;;;;;;5049228;28;19924;-85
2022/12/07 14:02:06;;;;;;;;;;;;;;;;;;5050705;28;20392;-83
2022/12/07 14:04:33;;;;;;;;;;;;;;;;;;5049679;28;19933;-82
2022/12/07 14:07:01;;;;;;;;;;;;;;;;;;5084174;28;19940;-81
2022/12/07 14:09:29;;;;;;;;;;;;;;;;;;5084706;28;21301;-82
2022/12/07 14:11:56;;;;;;;;;;;;;;;;;;5051139;28;20400;-82
2022/12/07 14:14:29;;;;;;;;;;;;;;;;;;5051653;28;20601;-81
2022/12/07 14:17:01;;;;;;;;;;;;;;;;;;5058643;28;20373;-83
2022/12/07 14:19:29;;;;;;;;;;;;;;;;;;5054136;28;20701;-82
2022/12/07 14:22:01;;;;;;;;;;;;;;;;;;5052798;28;19933;-81
2022/12/07 14:24:29;;;;;;;;;;;;;;;;;;5057500;28;19939;-84
2022/12/07 14:27:01;;;;;;;;;;;;;;;;;;5051209;28;20732;-86
2022/12/07 14:29:29;;;;;;;;;;;;;;;;;;5050731;28;19940;-82
2022/12/07 14:31:56;;;;;;;;;;;;;;;;;;5080997;28;20407;-82
2022/12/07 14:34:29;;;;;;;;;;;;;;;;;;5054056;28;19932;-79
2022/12/07 14:37:01;;;;;;;;;;;;;;;;;;5051796;28;19932;-84
2022/12/07 14:39:34;;;;;;;;;;;;;;;;;;5049935;28;19943;-82
2022/12/07 14:42:01;;;;;;;;;;;;;;;;;;5047738;28;19932;-85
2022/12/07 14:44:34;;;;;;;;;;;;;;;;;;5053624;28;19932;-82
2022/12/07 14:47:01;;;;;;;;;;;;;;;;;;5054627;28;19939;-86
2022/12/07 14:49:29;;;;;;;;;;;;;;;;;;5067073;28;20285;-82
2022/12/07 14:51:56;;;;;;;;;;;;;;;;;;5082805;27;19940;-81
2022/12/07 14:54:29;;;;;;;;;;;;;;;;;;5047339;28;19932;-84
2022/12/07 14:57:01;;;;;;;;;;;;;;;;;;5051569;28;19928;-81
2022/12/07 14:59:29;;;;;;;;;;;;;;;;;;5050402;28;20284;-81
2022/12/07 15:01:56;;;;;;;;;;;;;;;;;;5081761;28;19944;-82
2022/12/07 15:04:24;;;;;;;;;;;;;;;;;;5055986;28;19933;-81
2022/12/07 15:06:52;;;;;;;;;;;;;;;;;;5081871;28;19933;-81
2022/12/07 15:09:24;;;;;;;;;;;;;;;;;;5049787;28;19932;-81
2022/12/07 15:11:57;;;;;;;;;;;;;;;;;;5045962;28;19939;-82
2022/12/07 15:14:30;;;;;;;;;;;;;;;;;;5049180;28;19936;-83
2022/12/07 15:17:02;;;;;;;;;;;;;;;;;;5045538;28;19939;-83
2022/12/07 15:19:35;;;;;;;;;;;;;;;;;;5046200;28;19943;-79
2022/12/07 15:22:02;;;;;;;;;;;;;;;;;;5049489;28;20655;-81
2022/12/07 15:24:35;;;;;;;;;;;;;;;;;;5044989;28;19936;-81
2022/12/07 15:27:02;;;;;;;;;;;;;;;;;;5044754;28;19933;-81
2022/12/07 15:29:30;;;;;;;;;;;;;;;;;;5048065;28;21911;-81
2022/12/07 15:32:02;;;;;;;;;;;;;;;;;;5046400;28;20578;-81
2022/12/07 15:34:35;;;;;;;;;;;;;;;;;;5041904;28;20789;-82
2022/12/07 15:37:07;;;;;;;;;;;;;;;;;;5047110;28;19943;-79
2022/12/07 15:39:40;;;;;;;;;;;;;;;;;;5047250;28;19940;-80
2022/12/07 15:42:07;;;;;;;;;;;;;;;;;;5056800;28;19932;-82
2022/12/07 15:47:20;;;;;;;;;;;;;;;;;;5039518;28;19932;-83
2022/12/07 15:49:53;;;;;;;;;;;;;;;;;;5040737;28;19935;-82
2022/12/07 15:52:30;;;;;;;;;;;;;;;;;;5048350;28;19932;-81
2022/12/07 15:54:59;;;;;;;;;;;;;;;;;;5088161;28;19939;-81
2022/12/07 15:57:32;;;;;;;;;;;;;;;;;;5047933;28;19932;-80
2022/12/07 15:59:59;;;;;;;;;;;;;;;;;;5052410;28;19928;-80
2022/12/07 16:02:32;;;;;;;;;;;;;;;;;;5060105;28;19932;-80
2022/12/07 16:04:59;;;;;;;;;;;;;;;;;;5051683;28;19952;-80
2022/12/07 16:07:32;;;;;;;;;;;;;;;;;;5053752;28;19932;-81
2022/12/07 16:09:59;;;;;;;;;;;;;;;;;;5079333;27;19932;-81
2022/12/07 16:12:32;;;;;;;;;;;;;;;;;;5056676;28;19931;-79
2022/12/07 16:14:59;;;;;;;;;;;;;;;;;;5051262;28;19929;-80
2022/12/07 16:17:32;;;;;;;;;;;;;;;;;;5066301;28;19939;-80
2022/12/07 16:20:04;;;;;;;;;;;;;;;;;;5053383;28;19940;-80
2022/12/07 16:22:32;;;;;;;;;;;;;;;;;;5048031;28;19932;-81
2022/12/07 16:25:04;;;;;;;;;;;;;;;;;;5046870;28;19944;-80
2022/12/07 16:27:37;;;;;;;;;;;;;;;;;;5081990;27;19932;-81
2022/12/07 16:30:09;;;;;;;;;;;;;;;;;;5065024;28;19932;-84
2022/12/07 16:32:42;;;;;;;;;;;;;;;;;;5054122;28;19925;-82
2022/12/07 16:35:14;;;;;;;;;;;;;;;;;;5049181;28;20388;-79
2022/12/07 16:37:42;;;;;;;;;;;;;;;;;;5045315;28;19939;-80
2022/12/07 16:40:14;;;;;;;;;;;;;;;;;;5046197;28;19932;-79
2022/12/07 16:42:42;;;;;;;;;;;;;;;;;;5082640;28;19932;-81
2022/12/07 16:45:14;;;;;;;;;;;;;;;;;;5042121;28;19932;-82
2022/12/07 16:47:42;;;;;;;;;;;;;;;;;;5043768;28;19941;-80
2022/12/07 16:50:14;;;;;;;;;;;;;;;;;;5043465;28;20701;-81
2022/12/07 16:52:47;;;;;;;;;;;;;;;;;;5043533;28;19932;-80
2022/12/07 16:55:19;;;;;;;;;;;;;;;;;;5043264;28;19940;-79
2022/12/07 16:57:47;;;;;;;;;;;;;;;;;;5050820;28;19932;-81
2022/12/07 17:00:14;;;;;;;;;;;;;;;;;;5050650;28;19939;-79
2022/12/07 17:02:45;;;;;;;;;;;;;;;;;;5043880;28;19933;-82
2022/12/07 17:05:17;;;;;;;;;;;;;;;;;;5044686;28;19933;-81
2022/12/07 17:07:45;;;;;;;;;;;;;;;;;;5045991;28;21407;-80
2022/12/07 17:10:17;;;;;;;;;;;;;;;;;;5042396;28;19949;-82
2022/12/07 17:12:45;;;;;;;;;;;;;;;;;;5046601;28;19940;-79